sensor_id;sensor_type;location;lat;lon;timestamp;P1;durP1;ratioP1;P2;durP2;ratioP2
35488;SDS011;21602;55.670;37.578;2023-12-22T00:00:00;5.72;;;3.72;;
35488;SDS011;21602;55.670;37.578;2023-12-22T00:02:30;5.20;;;4.25;;
35488;SDS011;21602;55.670;37.578;2023-12-22T00:04:56;7.60;;;4.40;;
35488;SDS011;21602;55.670;37.578;2023-12-22T00:07:21;4.72;;;3.92;;
35488;SDS011;21602;55.670;37.578;2023-12-22T00:09:47;4.97;;;3.95;;
35488;SDS011;21602;55.670;37.578;2023-12-22T00:12:13;6.55;;;4.18;;
35488;SDS011;21602;55.670;37.578;2023-12-22T00:14:39;5.78;;;3.90;;
35488;SDS011;21602;55.670;37.578;2023-12-22T00:17:06;4.18;;;3.47;;
35488;SDS011;21602;55.670;37.578;2023-12-22T00:19:32;4.88;;;4.00;;
35488;SDS011;21602;55.670;37.578;2023-12-22T00:21:57;6.43;;;4.00;;
35488;SDS011;21602;55.670;37.578;2023-12-22T00:24:23;5.70;;;3.50;;
35488;SDS011;21602;55.670;37.578;2023-12-22T00:26:49;5.88;;;4.30;;
35488;SDS011;21602;55.670;37.578;2023-12-22T00:29:15;6.47;;;4.20;;
35488;SDS011;21602;55.670;37.578;2023-12-22T00:31:42;6.00;;;4.10;;
35488;SDS011;21602;55.670;37.578;2023-12-22T00:34:08;5.18;;;3.47;;
35488;SDS011;21602;55.670;37.578;2023-12-22T00:36:35;5.07;;;3.60;;
35488;SDS011;21602;55.670;37.578;2023-12-22T00:39:00;7.82;;;4.25;;
35488;SDS011;21602;55.670;37.578;2023-12-22T00:41:27;5.38;;;3.97;;
35488;SDS011;21602;55.670;37.578;2023-12-22T00:43:53;6.13;;;4.40;;
35488;SDS011;21602;55.670;37.578;2023-12-22T00:46:18;6.03;;;3.55;;
35488;SDS011;21602;55.670;37.578;2023-12-22T00:48:45;6.22;;;4.03;;
35488;SDS011;21602;55.670;37.578;2023-12-22T00:51:11;7.15;;;4.25;;
35488;SDS011;21602;55.670;37.578;2023-12-22T00:53:37;6.03;;;4.03;;
35488;SDS011;21602;55.670;37.578;2023-12-22T00:56:03;6.38;;;3.60;;
35488;SDS011;21602;55.670;37.578;2023-12-22T00:58:29;6.45;;;4.65;;
35488;SDS011;21602;55.670;37.578;2023-12-22T01:00:55;6.10;;;4.70;;
35488;SDS011;21602;55.670;37.578;2023-12-22T01:03:21;6.70;;;4.65;;
35488;SDS011;21602;55.670;37.578;2023-12-22T01:05:47;6.43;;;4.43;;
35488;SDS011;21602;55.670;37.578;2023-12-22T01:08:13;5.88;;;3.95;;
35488;SDS011;21602;55.670;37.578;2023-12-22T01:10:39;7.68;;;5.00;;
35488;SDS011;21602;55.670;37.578;2023-12-22T01:13:05;6.13;;;4.90;;
35488;SDS011;21602;55.670;37.578;2023-12-22T01:15:32;6.95;;;4.82;;
35488;SDS011;21602;55.670;37.578;2023-12-22T01:17:58;9.13;;;5.18;;
35488;SDS011;21602;55.670;37.578;2023-12-22T01:20:23;7.32;;;4.40;;
35488;SDS011;21602;55.670;37.578;2023-12-22T01:22:49;6.07;;;4.57;;
35488;SDS011;21602;55.670;37.578;2023-12-22T01:25:15;8.13;;;5.20;;
35488;SDS011;21602;55.670;37.578;2023-12-22T01:27:41;8.65;;;5.40;;
35488;SDS011;21602;55.670;37.578;2023-12-22T01:30:07;8.05;;;6.07;;
35488;SDS011;21602;55.670;37.578;2023-12-22T01:32:33;9.55;;;5.38;;
35488;SDS011;21602;55.670;37.578;2023-12-22T01:37:32;9.57;;;6.10;;
35488;SDS011;21602;55.670;37.578;2023-12-22T01:39:58;9.15;;;5.70;;
35488;SDS011;21602;55.670;37.578;2023-12-22T01:42:23;12.98;;;6.50;;
35488;SDS011;21602;55.670;37.578;2023-12-22T01:44:49;16.75;;;7.45;;
35488;SDS011;21602;55.670;37.578;2023-12-22T01:47:16;11.70;;;6.80;;
35488;SDS011;21602;55.670;37.578;2023-12-22T01:49:42;16.00;;;7.85;;
35488;SDS011;21602;55.670;37.578;2023-12-22T01:52:08;15.20;;;7.35;;
35488;SDS011;21602;55.670;37.578;2023-12-22T01:54:34;13.38;;;7.38;;
35488;SDS011;21602;55.670;37.578;2023-12-22T01:57:01;14.63;;;6.47;;
35488;SDS011;21602;55.670;37.578;2023-12-22T01:59:27;14.75;;;7.00;;
35488;SDS011;21602;55.670;37.578;2023-12-22T02:01:56;11.30;;;6.90;;
35488;SDS011;21602;55.670;37.578;2023-12-22T02:04:22;11.57;;;6.15;;
35488;SDS011;21602;55.670;37.578;2023-12-22T02:06:49;10.52;;;6.10;;
35488;SDS011;21602;55.670;37.578;2023-12-22T02:09:15;11.35;;;6.15;;
35488;SDS011;21602;55.670;37.578;2023-12-22T02:11:42;8.77;;;5.45;;
35488;SDS011;21602;55.670;37.578;2023-12-22T02:14:08;9.13;;;5.30;;
35488;SDS011;21602;55.670;37.578;2023-12-22T02:16:59;9.85;;;5.25;;
35488;SDS011;21602;55.670;37.578;2023-12-22T02:19:40;10.68;;;5.15;;
35488;SDS011;21602;55.670;37.578;2023-12-22T02:22:08;7.55;;;4.55;;
35488;SDS011;21602;55.670;37.578;2023-12-22T02:24:35;8.07;;;5.28;;
35488;SDS011;21602;55.670;37.578;2023-12-22T02:27:06;7.25;;;4.80;;
35488;SDS011;21602;55.670;37.578;2023-12-22T02:29:53;9.35;;;4.90;;
35488;SDS011;21602;55.670;37.578;2023-12-22T02:32:30;8.25;;;4.90;;
35488;SDS011;21602;55.670;37.578;2023-12-22T02:34:59;8.40;;;4.97;;
35488;SDS011;21602;55.670;37.578;2023-12-22T02:37:28;6.68;;;4.85;;
35488;SDS011;21602;55.670;37.578;2023-12-22T02:39:55;7.03;;;4.80;;
35488;SDS011;21602;55.670;37.578;2023-12-22T02:42:23;9.63;;;5.13;;
35488;SDS011;21602;55.670;37.578;2023-12-22T02:44:55;8.23;;;4.80;;
35488;SDS011;21602;55.670;37.578;2023-12-22T02:47:23;7.30;;;5.53;;
35488;SDS011;21602;55.670;37.578;2023-12-22T02:49:49;8.02;;;4.85;;
35488;SDS011;21602;55.670;37.578;2023-12-22T02:52:15;7.85;;;5.07;;
35488;SDS011;21602;55.670;37.578;2023-12-22T02:54:41;7.03;;;4.63;;
35488;SDS011;21602;55.670;37.578;2023-12-22T02:57:07;8.45;;;4.75;;
35488;SDS011;21602;55.670;37.578;2023-12-22T02:59:33;6.43;;;4.60;;
35488;SDS011;21602;55.670;37.578;2023-12-22T03:02:00;6.93;;;5.07;;
35488;SDS011;21602;55.670;37.578;2023-12-22T03:04:26;9.40;;;5.88;;
35488;SDS011;21602;55.670;37.578;2023-12-22T03:06:52;6.10;;;4.78;;
35488;SDS011;21602;55.670;37.578;2023-12-22T03:09:18;7.88;;;5.38;;
35488;SDS011;21602;55.670;37.578;2023-12-22T03:11:43;8.45;;;5.45;;
35488;SDS011;21602;55.670;37.578;2023-12-22T03:14:10;7.32;;;5.65;;
35488;SDS011;21602;55.670;37.578;2023-12-22T03:16:36;7.88;;;5.50;;
35488;SDS011;21602;55.670;37.578;2023-12-22T03:19:02;9.85;;;5.70;;
35488;SDS011;21602;55.670;37.578;2023-12-22T03:21:28;7.88;;;5.60;;
35488;SDS011;21602;55.670;37.578;2023-12-22T03:23:54;7.70;;;5.90;;
35488;SDS011;21602;55.670;37.578;2023-12-22T03:26:20;6.72;;;5.00;;
35488;SDS011;21602;55.670;37.578;2023-12-22T03:28:46;6.25;;;5.10;;
35488;SDS011;21602;55.670;37.578;2023-12-22T03:31:11;8.32;;;5.35;;
35488;SDS011;21602;55.670;37.578;2023-12-22T03:33:37;7.45;;;5.82;;
35488;SDS011;21602;55.670;37.578;2023-12-22T03:36:03;10.80;;;6.13;;
35488;SDS011;21602;55.670;37.578;2023-12-22T03:38:29;7.00;;;5.68;;
35488;SDS011;21602;55.670;37.578;2023-12-22T03:40:56;9.73;;;6.78;;
35488;SDS011;21602;55.670;37.578;2023-12-22T03:43:21;10.98;;;6.10;;
35488;SDS011;21602;55.670;37.578;2023-12-22T03:45:47;7.88;;;6.07;;
35488;SDS011;21602;55.670;37.578;2023-12-22T03:48:13;7.40;;;5.85;;
35488;SDS011;21602;55.670;37.578;2023-12-22T03:50:39;9.07;;;6.03;;
35488;SDS011;21602;55.670;37.578;2023-12-22T03:53:04;7.40;;;5.03;;
35488;SDS011;21602;55.670;37.578;2023-12-22T03:55:30;7.65;;;5.43;;
35488;SDS011;21602;55.670;37.578;2023-12-22T03:57:56;6.97;;;5.28;;
35488;SDS011;21602;55.670;37.578;2023-12-22T04:00:22;7.35;;;5.22;;
35488;SDS011;21602;55.670;37.578;2023-12-22T04:02:48;7.95;;;6.07;;
35488;SDS011;21602;55.670;37.578;2023-12-22T04:05:13;11.32;;;6.63;;
35488;SDS011;21602;55.670;37.578;2023-12-22T04:07:39;7.97;;;5.63;;
35488;SDS011;21602;55.670;37.578;2023-12-22T04:10:05;7.68;;;6.50;;
35488;SDS011;21602;55.670;37.578;2023-12-22T04:12:31;7.88;;;5.47;;
35488;SDS011;21602;55.670;37.578;2023-12-22T04:14:57;8.65;;;5.90;;
35488;SDS011;21602;55.670;37.578;2023-12-22T04:17:23;7.32;;;5.25;;
35488;SDS011;21602;55.670;37.578;2023-12-22T04:19:49;8.05;;;5.32;;
35488;SDS011;21602;55.670;37.578;2023-12-22T04:22:15;7.80;;;6.03;;
35488;SDS011;21602;55.670;37.578;2023-12-22T04:24:41;7.95;;;5.45;;
35488;SDS011;21602;55.670;37.578;2023-12-22T04:27:07;8.20;;;5.50;;
35488;SDS011;21602;55.670;37.578;2023-12-22T04:29:33;8.70;;;6.38;;
35488;SDS011;21602;55.670;37.578;2023-12-22T04:31:58;8.50;;;6.07;;
35488;SDS011;21602;55.670;37.578;2023-12-22T04:34:24;10.15;;;6.97;;
35488;SDS011;21602;55.670;37.578;2023-12-22T04:36:50;7.63;;;5.63;;
35488;SDS011;21602;55.670;37.578;2023-12-22T04:39:16;6.78;;;5.18;;
35488;SDS011;21602;55.670;37.578;2023-12-22T04:41:41;7.10;;;5.80;;
35488;SDS011;21602;55.670;37.578;2023-12-22T04:44:07;9.10;;;6.53;;
35488;SDS011;21602;55.670;37.578;2023-12-22T04:46:33;8.75;;;6.35;;
35488;SDS011;21602;55.670;37.578;2023-12-22T04:48:59;7.65;;;5.90;;
35488;SDS011;21602;55.670;37.578;2023-12-22T04:51:25;10.52;;;6.03;;
35488;SDS011;21602;55.670;37.578;2023-12-22T04:53:51;7.28;;;5.05;;
35488;SDS011;21602;55.670;37.578;2023-12-22T04:56:17;8.07;;;5.68;;
35488;SDS011;21602;55.670;37.578;2023-12-22T04:58:43;8.25;;;5.93;;
35488;SDS011;21602;55.670;37.578;2023-12-22T05:01:09;8.07;;;5.95;;
35488;SDS011;21602;55.670;37.578;2023-12-22T05:03:35;9.02;;;6.97;;
35488;SDS011;21602;55.670;37.578;2023-12-22T05:06:01;9.20;;;6.35;;
35488;SDS011;21602;55.670;37.578;2023-12-22T05:08:26;10.23;;;6.47;;
35488;SDS011;21602;55.670;37.578;2023-12-22T05:10:54;9.02;;;6.97;;
35488;SDS011;21602;55.670;37.578;2023-12-22T05:13:19;8.45;;;6.78;;
35488;SDS011;21602;55.670;37.578;2023-12-22T05:15:45;8.05;;;6.63;;
35488;SDS011;21602;55.670;37.578;2023-12-22T05:18:14;9.50;;;6.97;;
35488;SDS011;21602;55.670;37.578;2023-12-22T05:20:40;10.35;;;6.65;;
35488;SDS011;21602;55.670;37.578;2023-12-22T05:23:05;9.63;;;7.43;;
35488;SDS011;21602;55.670;37.578;2023-12-22T05:28:01;10.88;;;7.40;;
35488;SDS011;21602;55.670;37.578;2023-12-22T05:30:30;13.48;;;8.38;;
35488;SDS011;21602;55.670;37.578;2023-12-22T05:32:55;11.23;;;8.30;;
35488;SDS011;21602;55.670;37.578;2023-12-22T05:35:24;14.45;;;9.00;;
35488;SDS011;21602;55.670;37.578;2023-12-22T05:37:50;10.70;;;8.05;;
35488;SDS011;21602;55.670;37.578;2023-12-22T05:40:19;11.80;;;7.93;;
35488;SDS011;21602;55.670;37.578;2023-12-22T05:42:45;11.15;;;8.77;;
35488;SDS011;21602;55.670;37.578;2023-12-22T05:45:13;12.90;;;9.23;;
35488;SDS011;21602;55.670;37.578;2023-12-22T05:47:40;13.32;;;8.73;;
35488;SDS011;21602;55.670;37.578;2023-12-22T05:50:07;12.32;;;8.68;;
35488;SDS011;21602;55.670;37.578;2023-12-22T05:52:33;15.00;;;9.67;;
35488;SDS011;21602;55.670;37.578;2023-12-22T05:54:59;12.20;;;8.68;;
35488;SDS011;21602;55.670;37.578;2023-12-22T05:57:25;12.50;;;8.90;;
35488;SDS011;21602;55.670;37.578;2023-12-22T05:59:55;12.80;;;9.98;;
35488;SDS011;21602;55.670;37.578;2023-12-22T06:02:20;16.33;;;10.45;;
35488;SDS011;21602;55.670;37.578;2023-12-22T06:04:47;14.60;;;9.85;;
35488;SDS011;21602;55.670;37.578;2023-12-22T06:07:13;14.25;;;9.35;;
35488;SDS011;21602;55.670;37.578;2023-12-22T06:09:39;12.68;;;9.35;;
35488;SDS011;21602;55.670;37.578;2023-12-22T06:12:05;16.00;;;8.68;;
35488;SDS011;21602;55.670;37.578;2023-12-22T06:14:31;14.25;;;9.70;;
35488;SDS011;21602;55.670;37.578;2023-12-22T06:17:00;16.90;;;10.55;;
35488;SDS011;21602;55.670;37.578;2023-12-22T06:19:26;13.05;;;8.95;;
35488;SDS011;21602;55.670;37.578;2023-12-22T06:21:54;15.35;;;9.55;;
35488;SDS011;21602;55.670;37.578;2023-12-22T06:24:19;14.00;;;10.00;;
35488;SDS011;21602;55.670;37.578;2023-12-22T06:26:45;16.88;;;10.65;;
35488;SDS011;21602;55.670;37.578;2023-12-22T06:29:12;14.30;;;9.68;;
35488;SDS011;21602;55.670;37.578;2023-12-22T06:31:38;17.08;;;10.00;;
35488;SDS011;21602;55.670;37.578;2023-12-22T06:34:04;13.50;;;10.30;;
35488;SDS011;21602;55.670;37.578;2023-12-22T06:36:30;13.45;;;8.63;;
35488;SDS011;21602;55.670;37.578;2023-12-22T06:41:25;14.27;;;8.40;;
35488;SDS011;21602;55.670;37.578;2023-12-22T06:43:52;15.55;;;9.98;;
35488;SDS011;21602;55.670;37.578;2023-12-22T06:46:19;11.40;;;8.10;;
35488;SDS011;21602;55.670;37.578;2023-12-22T06:48:46;12.70;;;8.98;;
35488;SDS011;21602;55.670;37.578;2023-12-22T06:51:21;11.23;;;8.38;;
35488;SDS011;21602;55.670;37.578;2023-12-22T06:53:50;12.18;;;8.93;;
35488;SDS011;21602;55.670;37.578;2023-12-22T06:56:17;11.88;;;9.55;;
35488;SDS011;21602;55.670;37.578;2023-12-22T06:58:44;14.30;;;8.45;;
35488;SDS011;21602;55.670;37.578;2023-12-22T07:03:49;13.15;;;9.13;;
35488;SDS011;21602;55.670;37.578;2023-12-22T07:06:15;16.67;;;9.50;;
35488;SDS011;21602;55.670;37.578;2023-12-22T07:08:42;14.07;;;8.13;;
35488;SDS011;21602;55.670;37.578;2023-12-22T07:11:09;10.73;;;8.02;;
35488;SDS011;21602;55.670;37.578;2023-12-22T07:13:36;13.90;;;9.43;;
35488;SDS011;21602;55.670;37.578;2023-12-22T07:16:03;11.38;;;8.95;;
35488;SDS011;21602;55.670;37.578;2023-12-22T07:18:30;10.00;;;8.25;;
35488;SDS011;21602;55.670;37.578;2023-12-22T07:20:56;14.00;;;8.55;;
35488;SDS011;21602;55.670;37.578;2023-12-22T07:23:26;11.77;;;9.07;;
35488;SDS011;21602;55.670;37.578;2023-12-22T07:25:52;11.50;;;8.13;;
35488;SDS011;21602;55.670;37.578;2023-12-22T07:28:21;9.85;;;7.45;;
35488;SDS011;21602;55.670;37.578;2023-12-22T07:30:47;11.38;;;6.88;;
35488;SDS011;21602;55.670;37.578;2023-12-22T07:33:14;9.20;;;7.28;;
35488;SDS011;21602;55.670;37.578;2023-12-22T07:35:40;10.30;;;7.18;;
35488;SDS011;21602;55.670;37.578;2023-12-22T07:38:05;9.68;;;6.80;;
35488;SDS011;21602;55.670;37.578;2023-12-22T07:40:32;11.95;;;6.93;;
35488;SDS011;21602;55.670;37.578;2023-12-22T07:42:59;7.13;;;5.93;;
35488;SDS011;21602;55.670;37.578;2023-12-22T07:45:28;7.70;;;6.28;;
35488;SDS011;21602;55.670;37.578;2023-12-22T07:47:54;9.52;;;6.50;;
35488;SDS011;21602;55.670;37.578;2023-12-22T07:50:20;8.40;;;6.20;;
35488;SDS011;21602;55.670;37.578;2023-12-22T07:52:46;10.70;;;7.03;;
35488;SDS011;21602;55.670;37.578;2023-12-22T07:55:12;10.02;;;6.43;;
35488;SDS011;21602;55.670;37.578;2023-12-22T07:57:41;9.23;;;6.68;;
35488;SDS011;21602;55.670;37.578;2023-12-22T08:00:07;10.70;;;6.55;;
35488;SDS011;21602;55.670;37.578;2023-12-22T08:02:45;5.78;;;4.75;;
35488;SDS011;21602;55.670;37.578;2023-12-22T08:05:11;11.05;;;6.20;;
35488;SDS011;21602;55.670;37.578;2023-12-22T08:07:36;8.90;;;6.47;;
35488;SDS011;21602;55.670;37.578;2023-12-22T08:10:03;8.02;;;6.10;;
35488;SDS011;21602;55.670;37.578;2023-12-22T08:12:30;8.75;;;5.90;;
35488;SDS011;21602;55.670;37.578;2023-12-22T08:14:58;10.45;;;6.57;;
35488;SDS011;21602;55.670;37.578;2023-12-22T08:17:24;7.63;;;6.00;;
35488;SDS011;21602;55.670;37.578;2023-12-22T08:19:50;7.85;;;5.97;;
35488;SDS011;21602;55.670;37.578;2023-12-22T08:22:16;6.43;;;5.55;;
35488;SDS011;21602;55.670;37.578;2023-12-22T08:24:43;9.82;;;6.60;;
35488;SDS011;21602;55.670;37.578;2023-12-22T08:27:09;8.70;;;6.60;;
35488;SDS011;21602;55.670;37.578;2023-12-22T08:29:35;7.55;;;6.00;;
35488;SDS011;21602;55.670;37.578;2023-12-22T08:32:01;8.52;;;6.25;;
35488;SDS011;21602;55.670;37.578;2023-12-22T08:34:29;11.43;;;7.13;;
35488;SDS011;21602;55.670;37.578;2023-12-22T08:36:54;8.85;;;6.45;;
35488;SDS011;21602;55.670;37.578;2023-12-22T08:39:20;8.77;;;6.55;;
35488;SDS011;21602;55.670;37.578;2023-12-22T08:41:46;11.82;;;7.13;;
35488;SDS011;21602;55.670;37.578;2023-12-22T08:44:13;9.30;;;6.07;;
35488;SDS011;21602;55.670;37.578;2023-12-22T08:46:42;8.93;;;6.53;;
35488;SDS011;21602;55.670;37.578;2023-12-22T08:49:08;8.55;;;5.85;;
35488;SDS011;21602;55.670;37.578;2023-12-22T08:51:34;8.05;;;6.68;;
35488;SDS011;21602;55.670;37.578;2023-12-22T08:54:00;9.88;;;5.97;;
35488;SDS011;21602;55.670;37.578;2023-12-22T08:56:26;8.95;;;6.90;;
35488;SDS011;21602;55.670;37.578;2023-12-22T08:58:53;8.90;;;6.68;;
35488;SDS011;21602;55.670;37.578;2023-12-22T09:01:24;9.10;;;6.60;;
35488;SDS011;21602;55.670;37.578;2023-12-22T09:03:50;9.40;;;7.55;;
35488;SDS011;21602;55.670;37.578;2023-12-22T09:06:18;12.20;;;7.22;;
35488;SDS011;21602;55.670;37.578;2023-12-22T09:08:46;10.20;;;7.38;;
35488;SDS011;21602;55.670;37.578;2023-12-22T09:11:15;14.07;;;9.25;;
35488;SDS011;21602;55.670;37.578;2023-12-22T09:13:42;13.43;;;8.10;;
35488;SDS011;21602;55.670;37.578;2023-12-22T09:16:10;12.13;;;8.73;;
35488;SDS011;21602;55.670;37.578;2023-12-22T09:18:36;14.93;;;10.47;;
35488;SDS011;21602;55.670;37.578;2023-12-22T09:21:02;15.70;;;10.25;;
35488;SDS011;21602;55.670;37.578;2023-12-22T09:23:29;18.42;;;11.10;;
35488;SDS011;21602;55.670;37.578;2023-12-22T09:25:57;15.60;;;10.15;;
35488;SDS011;21602;55.670;37.578;2023-12-22T09:28:23;15.88;;;10.90;;
35488;SDS011;21602;55.670;37.578;2023-12-22T09:30:50;23.88;;;13.43;;
35488;SDS011;21602;55.670;37.578;2023-12-22T09:33:16;20.15;;;12.48;;
35488;SDS011;21602;55.670;37.578;2023-12-22T09:35:42;23.40;;;13.15;;
35488;SDS011;21602;55.670;37.578;2023-12-22T09:38:08;18.35;;;12.98;;
35488;SDS011;21602;55.670;37.578;2023-12-22T09:40:35;15.95;;;11.45;;
35488;SDS011;21602;55.670;37.578;2023-12-22T09:43:02;16.98;;;12.10;;
35488;SDS011;21602;55.670;37.578;2023-12-22T09:45:30;16.30;;;11.23;;
35488;SDS011;21602;55.670;37.578;2023-12-22T09:47:59;17.95;;;13.75;;
35488;SDS011;21602;55.670;37.578;2023-12-22T09:50:26;18.40;;;13.65;;
35488;SDS011;21602;55.670;37.578;2023-12-22T09:52:53;16.50;;;12.18;;
35488;SDS011;21602;55.670;37.578;2023-12-22T09:55:21;15.60;;;12.45;;
35488;SDS011;21602;55.670;37.578;2023-12-22T09:57:47;17.05;;;11.45;;
35488;SDS011;21602;55.670;37.578;2023-12-22T10:00:15;15.95;;;10.90;;
35488;SDS011;21602;55.670;37.578;2023-12-22T10:02:42;15.15;;;11.55;;
35488;SDS011;21602;55.670;37.578;2023-12-22T10:05:10;18.75;;;12.93;;
35488;SDS011;21602;55.670;37.578;2023-12-22T10:07:40;17.00;;;11.73;;
35488;SDS011;21602;55.670;37.578;2023-12-22T10:10:12;13.93;;;9.98;;
35488;SDS011;21602;55.670;37.578;2023-12-22T10:12:39;13.25;;;9.80;;
35488;SDS011;21602;55.670;37.578;2023-12-22T10:15:10;15.55;;;12.00;;
35488;SDS011;21602;55.670;37.578;2023-12-22T10:17:38;15.57;;;11.63;;
35488;SDS011;21602;55.670;37.578;2023-12-22T10:20:05;15.68;;;10.45;;
35488;SDS011;21602;55.670;37.578;2023-12-22T10:22:31;15.98;;;10.48;;
35488;SDS011;21602;55.670;37.578;2023-12-22T10:27:28;13.52;;;8.98;;
35488;SDS011;21602;55.670;37.578;2023-12-22T10:29:55;12.20;;;9.27;;
35488;SDS011;21602;55.670;37.578;2023-12-22T10:32:22;12.10;;;8.93;;
35488;SDS011;21602;55.670;37.578;2023-12-22T10:34:48;13.52;;;9.32;;
35488;SDS011;21602;55.670;37.578;2023-12-22T10:37:17;11.88;;;8.13;;
35488;SDS011;21602;55.670;37.578;2023-12-22T10:39:43;12.40;;;8.07;;
35488;SDS011;21602;55.670;37.578;2023-12-22T10:42:11;10.73;;;7.63;;
35488;SDS011;21602;55.670;37.578;2023-12-22T10:44:40;13.60;;;8.23;;
35488;SDS011;21602;55.670;37.578;2023-12-22T10:47:07;10.55;;;7.95;;
35488;SDS011;21602;55.670;37.578;2023-12-22T10:49:33;11.35;;;7.95;;
35488;SDS011;21602;55.670;37.578;2023-12-22T10:51:59;9.40;;;7.38;;
35488;SDS011;21602;55.670;37.578;2023-12-22T10:54:25;10.57;;;7.93;;
35488;SDS011;21602;55.670;37.578;2023-12-22T10:56:51;12.32;;;7.38;;
35488;SDS011;21602;55.670;37.578;2023-12-22T10:59:18;11.88;;;7.78;;
35488;SDS011;21602;55.670;37.578;2023-12-22T11:01:47;10.07;;;7.40;;
35488;SDS011;21602;55.670;37.578;2023-12-22T11:04:17;10.02;;;6.70;;
35488;SDS011;21602;55.670;37.578;2023-12-22T11:06:45;10.07;;;7.65;;
35488;SDS011;21602;55.670;37.578;2023-12-22T11:09:15;14.85;;;7.97;;
35488;SDS011;21602;55.670;37.578;2023-12-22T11:11:42;10.15;;;7.82;;
35488;SDS011;21602;55.670;37.578;2023-12-22T11:14:10;14.90;;;7.13;;
35488;SDS011;21602;55.670;37.578;2023-12-22T11:16:37;7.23;;;5.73;;
35488;SDS011;21602;55.670;37.578;2023-12-22T11:19:07;12.13;;;8.00;;
35488;SDS011;21602;55.670;37.578;2023-12-22T11:21:36;9.35;;;7.13;;
35488;SDS011;21602;55.670;37.578;2023-12-22T11:24:03;10.20;;;7.50;;
35488;SDS011;21602;55.670;37.578;2023-12-22T11:26:30;10.70;;;7.15;;
35488;SDS011;21602;55.670;37.578;2023-12-22T11:28:57;8.93;;;6.55;;
35488;SDS011;21602;55.670;37.578;2023-12-22T11:31:26;11.07;;;7.38;;
35488;SDS011;21602;55.670;37.578;2023-12-22T11:33:53;9.90;;;7.47;;
35488;SDS011;21602;55.670;37.578;2023-12-22T11:36:21;11.30;;;7.65;;
35488;SDS011;21602;55.670;37.578;2023-12-22T11:38:49;10.70;;;7.30;;
35488;SDS011;21602;55.670;37.578;2023-12-22T11:41:22;8.80;;;6.70;;
35488;SDS011;21602;55.670;37.578;2023-12-22T11:43:52;10.95;;;7.05;;
35488;SDS011;21602;55.670;37.578;2023-12-22T11:46:20;9.13;;;6.45;;
35488;SDS011;21602;55.670;37.578;2023-12-22T11:48:49;12.57;;;7.38;;
35488;SDS011;21602;55.670;37.578;2023-12-22T11:51:16;8.85;;;6.88;;
35488;SDS011;21602;55.670;37.578;2023-12-22T11:53:43;10.13;;;6.68;;
35488;SDS011;21602;55.670;37.578;2023-12-22T11:56:10;10.23;;;6.95;;
35488;SDS011;21602;55.670;37.578;2023-12-22T11:58:41;8.43;;;6.22;;
35488;SDS011;21602;55.670;37.578;2023-12-22T12:01:16;9.13;;;6.57;;
35488;SDS011;21602;55.670;37.578;2023-12-22T12:03:50;10.18;;;6.35;;
35488;SDS011;21602;55.670;37.578;2023-12-22T12:08:54;7.63;;;6.20;;
35488;SDS011;21602;55.670;37.578;2023-12-22T12:11:21;9.10;;;6.18;;
35488;SDS011;21602;55.670;37.578;2023-12-22T12:13:48;7.93;;;5.78;;
35488;SDS011;21602;55.670;37.578;2023-12-22T12:16:19;8.40;;;5.93;;
35488;SDS011;21602;55.670;37.578;2023-12-22T12:18:49;13.93;;;6.38;;
35488;SDS011;21602;55.670;37.578;2023-12-22T12:21:18;9.88;;;6.38;;
35488;SDS011;21602;55.670;37.578;2023-12-22T12:23:44;7.07;;;5.82;;
35488;SDS011;21602;55.670;37.578;2023-12-22T12:26:10;7.50;;;5.97;;
35488;SDS011;21602;55.670;37.578;2023-12-22T12:28:37;8.57;;;6.30;;
35488;SDS011;21602;55.670;37.578;2023-12-22T12:31:07;7.90;;;6.15;;
35488;SDS011;21602;55.670;37.578;2023-12-22T12:33:37;8.98;;;6.28;;
35488;SDS011;21602;55.670;37.578;2023-12-22T12:36:03;11.48;;;5.93;;
35488;SDS011;21602;55.670;37.578;2023-12-22T12:41:22;10.30;;;6.22;;
35488;SDS011;21602;55.670;37.578;2023-12-22T12:46:36;7.82;;;5.70;;
35488;SDS011;21602;55.670;37.578;2023-12-22T12:51:29;8.10;;;5.68;;
35488;SDS011;21602;55.670;37.578;2023-12-22T12:53:55;10.88;;;6.60;;
35488;SDS011;21602;55.670;37.578;2023-12-22T12:56:22;9.45;;;6.28;;
35488;SDS011;21602;55.670;37.578;2023-12-22T12:58:48;7.80;;;6.15;;
35488;SDS011;21602;55.670;37.578;2023-12-22T13:01:14;7.95;;;6.05;;
35488;SDS011;21602;55.670;37.578;2023-12-22T13:03:51;7.88;;;5.72;;
35488;SDS011;21602;55.670;37.578;2023-12-22T13:06:21;9.18;;;5.80;;
35488;SDS011;21602;55.670;37.578;2023-12-22T13:08:47;7.43;;;5.70;;
35488;SDS011;21602;55.670;37.578;2023-12-22T13:11:15;9.27;;;6.25;;
35488;SDS011;21602;55.670;37.578;2023-12-22T13:14:01;12.38;;;6.35;;
35488;SDS011;21602;55.670;37.578;2023-12-22T13:16:31;8.93;;;6.75;;
35488;SDS011;21602;55.670;37.578;2023-12-22T13:18:59;9.45;;;6.10;;
35488;SDS011;21602;55.670;37.578;2023-12-22T13:21:27;9.40;;;6.15;;
35488;SDS011;21602;55.670;37.578;2023-12-22T13:24:09;8.82;;;6.05;;
35488;SDS011;21602;55.670;37.578;2023-12-22T13:26:37;9.88;;;6.78;;
35488;SDS011;21602;55.670;37.578;2023-12-22T13:29:04;8.85;;;6.47;;
35488;SDS011;21602;55.670;37.578;2023-12-22T13:31:36;10.18;;;6.28;;
35488;SDS011;21602;55.670;37.578;2023-12-22T13:34:03;8.27;;;5.95;;
35488;SDS011;21602;55.670;37.578;2023-12-22T13:36:34;13.85;;;6.85;;
35488;SDS011;21602;55.670;37.578;2023-12-22T13:39:02;9.75;;;6.60;;
35488;SDS011;21602;55.670;37.578;2023-12-22T13:41:39;12.05;;;6.75;;
35488;SDS011;21602;55.670;37.578;2023-12-22T13:44:10;10.63;;;7.45;;
35488;SDS011;21602;55.670;37.578;2023-12-22T13:46:37;10.15;;;7.30;;
35488;SDS011;21602;55.670;37.578;2023-12-22T13:54:14;10.13;;;7.65;;
35488;SDS011;21602;55.670;37.578;2023-12-22T13:56:40;12.50;;;7.40;;
35488;SDS011;21602;55.670;37.578;2023-12-22T13:59:07;9.93;;;6.35;;
35488;SDS011;21602;55.670;37.578;2023-12-22T14:01:33;10.35;;;6.45;;
35488;SDS011;21602;55.670;37.578;2023-12-22T14:03:59;9.90;;;7.07;;
35488;SDS011;21602;55.670;37.578;2023-12-22T14:06:26;10.05;;;6.80;;
35488;SDS011;21602;55.670;37.578;2023-12-22T14:08:55;9.63;;;6.70;;
35488;SDS011;21602;55.670;37.578;2023-12-22T14:11:24;7.95;;;6.55;;
35488;SDS011;21602;55.670;37.578;2023-12-22T14:13:51;8.70;;;6.90;;
35488;SDS011;21602;55.670;37.578;2023-12-22T14:16:17;12.60;;;6.60;;
35488;SDS011;21602;55.670;37.578;2023-12-22T14:18:43;10.40;;;7.35;;
35488;SDS011;21602;55.670;37.578;2023-12-22T14:21:19;9.48;;;7.05;;
35488;SDS011;21602;55.670;37.578;2023-12-22T14:23:47;9.68;;;6.45;;
35488;SDS011;21602;55.670;37.578;2023-12-22T14:26:19;10.55;;;7.47;;
35488;SDS011;21602;55.670;37.578;2023-12-22T14:28:45;10.27;;;6.55;;
35488;SDS011;21602;55.670;37.578;2023-12-22T14:31:21;11.60;;;6.60;;
35488;SDS011;21602;55.670;37.578;2023-12-22T14:33:59;8.82;;;6.60;;
35488;SDS011;21602;55.670;37.578;2023-12-22T14:36:25;8.32;;;6.10;;
35488;SDS011;21602;55.670;37.578;2023-12-22T14:38:51;9.73;;;6.32;;
35488;SDS011;21602;55.670;37.578;2023-12-22T14:41:19;11.00;;;7.55;;
35488;SDS011;21602;55.670;37.578;2023-12-22T14:43:45;11.88;;;7.15;;
35488;SDS011;21602;55.670;37.578;2023-12-22T14:46:12;15.13;;;7.85;;
35488;SDS011;21602;55.670;37.578;2023-12-22T14:48:41;12.88;;;7.95;;
35488;SDS011;21602;55.670;37.578;2023-12-22T14:51:11;10.82;;;7.65;;
35488;SDS011;21602;55.670;37.578;2023-12-22T14:53:39;12.95;;;8.10;;
35488;SDS011;21602;55.670;37.578;2023-12-22T14:56:05;10.80;;;7.40;;